Time,TemperatureF,DewpointF,PressureIn,WindDirection,WindDirectionDegrees,WindSpeedMPH,WindSpeedGustMPH,Humidity,HourlyPrecipIn,Conditions,Clouds,dailyrainin,SoftwareType,DateUTC
2013-10-06 02:22:00,49.0,49.0,30.12,North,0,0.0,0.0,100,0.00,,,0.02,,2013-10-06 09:22:00,
2013-10-06 02:33:00,49.0,49.0,30.12,North,0,0.0,0.0,100,0.00,,,0.02,,2013-10-06 09:33:00,
2013-10-06 02:53:00,50.0,50.0,30.11,North,0,0.0,0.0,100,0.00,,,0.02,,2013-10-06 09:53:00,
2013-10-06 03:23:00,49.0,49.0,30.10,North,0,0.0,0.0,100,0.00,,,0.02,,2013-10-06 10:23:00,
2013-10-06 03:53:00,49.0,49.0,30.09,North,0,0.0,0.0,100,0.00,,,0.01,,2013-10-06 10:53:00,
2013-10-06 04:21:00,51.0,51.0,30.08,North,0,0.0,3.0,100,0.00,,,0.01,,2013-10-06 11:21:00,
2013-10-06 04:52:00,51.0,51.0,30.08,North,0,0.0,3.0,100,0.00,,,0.01,,2013-10-06 11:52:00,
2013-10-06 05:02:00,51.0,51.0,30.08,North,0,0.0,3.0,100,0.00,,,0.01,,2013-10-06 12:02:00,
2013-10-06 05:22:00,51.0,51.0,30.06,North,0,0.0,0.0,100,0.00,,,0.01,,2013-10-06 12:22:00,
2013-10-06 05:52:00,49.0,49.0,30.06,North,0,0.0,0.0,100,0.00,,,0.01,,2013-10-06 12:52:00,
2013-10-06 06:21:00,50.0,50.0,30.05,NE,50,0.0,3.0,100,0.00,,,0.01,,2013-10-06 13:21:00,
2013-10-06 06:52:00,51.0,51.0,30.05,NE,46,0.0,4.0,100,0.00,,,0.01,,2013-10-06 13:52:00,
2013-10-06 07:22:00,50.0,50.0,30.06,North,0,0.0,0.0,100,0.00,,,0.01,,2013-10-06 14:22:00,
2013-10-06 07:52:00,51.0,50.0,30.06,ESE,121,0.0,4.0,98,0.00,,,0.01,,2013-10-06 14:52:00,
2013-10-06 08:22:00,55.0,50.0,30.06,North,0,0.0,7.0,83,0.00,,,0.01,,2013-10-06 15:22:00,
2013-10-06 08:54:00,57.0,50.0,30.06,North,0,0.0,8.0,76,0.00,,,0.01,,2013-10-06 15:54:00,
2013-10-06 09:23:00,56.0,48.0,30.06,North,0,0.0,0.0,75,0.00,,,0.01,,2013-10-06 16:23:00,
2013-10-06 09:53:00,59.0,48.0,30.07,WSW,252,0.0,7.0,66,0.00,,,0.01,,2013-10-06 16:53:00,
2013-10-06 10:22:00,64.0,48.0,30.07,North,0,0.0,7.0,57,0.00,,,0.01,,2013-10-06 17:22:00,
2013-10-06 10:52:00,66.0,46.0,30.07,SSE,166,2.0,11.0,48,0.00,,,0.01,,2013-10-06 17:52:00,
2013-10-06 11:21:00,67.0,39.0,30.08,West,259,7.0,22.0,36,0.00,,,0.01,,2013-10-06 18:21:00,
2013-10-06 11:52:00,68.0,38.0,30.07,SW,221,10.0,21.0,33,0.00,,,0.01,,2013-10-06 18:52:00,
2013-10-06 12:11:00,67.0,43.0,30.08,WNW,301,7.0,17.0,41,0.00,,,0.01,,2013-10-06 19:11:00,
2013-10-06 12:22:00,67.0,43.0,30.08,WNW,301,7.0,17.0,41,0.00,,,0.01,,2013-10-06 19:22:00,
2013-10-06 12:53:00,61.0,51.0,30.09,WSW,257,5.0,17.0,69,0.00,,,0.01,,2013-10-06 19:53:00,
2013-10-06 13:11:00,61.0,52.0,30.09,West,263,6.0,22.0,71,0.00,,,0.01,,2013-10-06 20:11:00,
2013-10-06 13:22:00,61.0,52.0,30.09,West,263,6.0,22.0,71,0.00,,,0.01,,2013-10-06 20:22:00,
2013-10-06 13:52:00,60.0,53.0,30.08,SSE,165,9.0,18.0,79,0.00,,,0.01,,2013-10-06 20:52:00,
2013-10-06 14:22:00,62.0,54.0,30.07,SSW,196,11.0,23.0,74,0.00,,,0.01,,2013-10-06 21:22:00,
2013-10-06 14:54:00,60.0,56.0,30.07,SW,222,8.0,17.0,87,0.00,,,0.01,,2013-10-06 21:54:00,
2013-10-06 15:03:00,60.0,56.0,30.07,SW,222,8.0,17.0,87,0.00,,,0.01,,2013-10-06 22:03:00,
2013-10-06 15:24:00,60.0,56.0,30.06,SSW,196,7.0,19.0,88,0.00,,,0.01,,2013-10-06 22:24:00,
2013-10-06 15:53:00,61.0,57.0,30.07,SSW,200,6.0,17.0,87,0.00,,,0.01,,2013-10-06 22:53:00,
2013-10-06 16:22:00,59.0,56.0,30.08,South,175,10.0,19.0,91,0.00,,,0.01,,2013-10-06 23:22:00,
2013-10-06 16:53:00,58.0,56.0,30.08,South,179,6.0,15.0,94,0.00,,,0.01,,2013-10-06 23:53:00,
2013-10-06 17:21:00,59.0,58.0,30.07,South,176,5.0,10.0,95,0.00,,,0.01,,2013-10-07 00:21:00,
2013-10-06 17:42:00,59.0,58.0,30.07,SSW,196,7.0,12.0,95,0.00,,,0.01,,2013-10-07 00:42:00,
2013-10-06 17:52:00,59.0,58.0,30.07,SSW,196,7.0,12.0,95,0.00,,,0.01,,2013-10-07 00:52:00,
2013-10-06 18:22:00,58.0,57.0,30.06,ENE,75,1.0,12.0,97,0.00,,,0.01,,2013-10-07 01:22:00,
2013-10-06 18:53:00,57.0,56.0,30.06,WSW,242,3.0,12.0,97,0.00,,,0.01,,2013-10-07 01:53:00,
2013-10-06 19:22:00,57.0,56.0,30.06,SSW,208,0.0,11.0,98,0.00,,,0.01,,2013-10-07 02:22:00,
2013-10-06 19:42:00,57.0,56.0,30.06,West,268,0.0,13.0,98,0.00,,,0.01,,2013-10-07 02:42:00,
2013-10-06 19:53:00,57.0,57.0,30.06,WSW,256,5.0,12.0,99,0.00,,,0.01,,2013-10-07 02:53:00,
2013-10-06 20:22:00,56.0,56.0,30.06,South,182,2.0,6.0,99,0.00,,,0.01,,2013-10-07 03:22:00,
2013-10-06 20:54:00,57.0,56.0,30.06,SSE,166,0.0,13.0,98,0.00,,,0.01,,2013-10-07 03:54:00,
2013-10-06 21:13:00,57.0,56.0,30.06,WSW,252,1.0,15.0,98,0.00,,,0.01,,2013-10-07 04:13:00,
2013-10-06 21:24:00,57.0,56.0,30.06,South,177,0.0,10.0,98,0.00,,,0.01,,2013-10-07 04:24:00,
2013-10-06 21:53:00,57.0,57.0,30.06,North,2,0.0,10.0,99,0.00,,,0.01,,2013-10-07 04:53:00,
2013-10-06 22:22:00,57.0,57.0,30.06,North,357,0.0,8.0,100,0.00,,,0.01,,2013-10-07 05:22:00,
2013-10-06 22:52:00,57.0,57.0,30.06,SSE,162,2.0,9.0,99,0.00,,,0.01,,2013-10-07 05:52:00,
2013-10-06 23:21:00,57.0,57.0,30.06,South,173,3.0,11.0,99,0.00,,,0.01,,2013-10-07 06:21:00,
2013-10-06 23:52:00,57.0,57.0,30.05,South,187,2.0,14.0,100,0.00,,,0.01,,2013-10-07 06:52:00,